Main page
METAR-TAF:

METAR-TAF

Airports :

Kuressaare Airport

Kuressaare, Estonia

latitude: 58-13-48N, longitude: 022-30-34E, elevation: 4 m

Current weather observation

The report was made 17 minutes ago, at 18:50 UTC
Wind 2 kt from variable directions
Temperature 1°C
Humidity 93%
Pressure 1031 hPa
Visibility 10 km or more
Scattered clouds at a height of 1700 ft
Overcast at a height of 2400 ft

METAR: EEKE 211850Z AUTO VRB02KT 9999NDV SCT017 OVC024 01/M00 Q1031

Time: 21:07 (19:07 UTC)

Forecast

The report was made 4 hours and 7 minutes ago, at 15:00 UTC
Forecast valid from 21 at 16 UTC to 21 at 22 UTC
Wind 2 kt from variable directions
Visibility 10 km or more
Overcast at a height of 2000 ft
Temporary
from 21 at 16 UTC to 21 at 22 UTC
Broken clouds at a height of 800 ft
Overcast at a height of 1500 ft
Probability 40% :
Temporary
from 21 at 20 UTC to 21 at 22 UTC
Visibility: 3000 m
mist

TAF: EEKE 211500Z 2116/2122 VRB02KT 9999 OVC020 TEMPO 2116/2122 BKN008 OVC015 PROB40 TEMPO 2120/2122 3000 BR

Weather observations and forecasts of more than 4000 airports (METAR and TAF reports).

The available stations are represented by yellow and red dots on the map.

Hover mouse over dot to see the name of the station.

Then click to see weather observations and forecasts.

To change the map : click on the green buttons with a black cross to zoom in, on the green button with a dash to zoom out, or on the green arrows for adjacent maps.


METAR-TAF: